S-y Atmosphere — ZCGY6 — position and weather

sailwx.info

Track history (hours):
 
Tides and Currents Weather Stations Pressure Air Temp Water Temp Dewpoint Dewpoint Depression Visibility Wind Speed Wind Dir Waves Ship Positions

S-y Atmosphere

Last reported at 2015-Jul-28 16:33 UTC. Time now 2015-Jul-29 09:30 UTC.
Position N 44°17' E 009°12'.

Length 53 m; draft 4 m.

Type: Sailing vessel. MMSI: 319726000.

Date/timePositionNaut miles runAvg speedWind from/ knotsBaromVisibWave heightAir tempDewpointWater temp
2015-Jul-28 16:33N 44°17' E 009°12'  
2015-Jul-23 09:13N 43°36' E 007°14'710.7
2015-Jul-23 08:33N 43°31' E 007°07'12 0.6
2015-Jul-22 11:29N 43°24' E 006°53'1010.7
2015-Jul-22 10:33N 43°18' E 006°42'3 2.3
2015-Jul-22 09:25N 43°17' E 006°39'0 0.0
2015-Jul-22 08:25N 43°16' E 006°39'0 0.0
2015-Jul-22 07:29N 43°16' E 006°39'0 0.0
2015-Jul-22 06:31N 43°16' E 006°39'0 0.0
2015-Jul-22 05:28N 43°17' E 006°39'0 0.0
2015-Jul-22 02:12N 43°17' E 006°39'0 0.0
2015-Jul-22 00:32N 43°16' E 006°39'0 0.0
2015-Jul-21 22:26N 43°16' E 006°39'0 0.0
2015-Jul-21 21:14N 43°16' E 006°39'0 0.0
2015-Jul-21 20:33N 43°16' E 006°39'0 0.2
2015-Jul-21 19:28N 43°16' E 006°39'0 0.0
2015-Jul-21 18:20N 43°16' E 006°39'0 0.2
2015-Jul-21 16:29N 43°17' E 006°40'59 2.4
2015-Jul-20 16:03N 43°14' E 005°19'510.2
2015-Jul-20 15:33N 43°19' E 005°19'1 1.2
2015-Jul-20 14:31N 43°21' E 005°19'0 0.0
2015-Jul-20 13:32N 43°21' E 005°19'0 0.1
2015-Jul-20 12:33N 43°21' E 005°19'0 0.0
2015-Jul-20 11:33N 43°21' E 005°19'0 0.0
2015-Jul-20 10:33N 43°21' E 005°19'0 0.0
2015-Jul-20 09:33N 43°21' E 005°19'0 0.0
2015-Jul-20 08:32N 43°21' E 005°19'0 0.0
2015-Jul-20 07:29N 43°21' E 005°19'0 0.0
2015-Jul-20 06:31N 43°21' E 005°19'4 1.0
2015-Jul-20 03:03N 43°17' E 005°18'0 0.0
2015-Jul-20 02:27N 43°17' E 005°18'0 0.0
2015-Jul-20 01:11N 43°17' E 005°18'0 0.0
2015-Jul-20 00:33N 43°17' E 005°18'0 0.0
2015-Jul-19 23:33N 43°17' E 005°18'0 0.0
2015-Jul-19 22:33N 43°17' E 005°18'0 0.0
2015-Jul-19 21:33N 43°17' E 005°18'0 0.0
2015-Jul-19 20:33N 43°17' E 005°18'0 0.0
2015-Jul-19 19:29N 43°17' E 005°18'0 0.0
2015-Jul-19 18:29N 43°17' E 005°18'0 0.0
2015-Jul-19 17:33N 43°17' E 005°18'0 0.0
2015-Jul-19 16:33N 43°17' E 005°18'0 0.0
2015-Jul-19 15:32N 43°17' E 005°18'0 0.0
2015-Jul-19 14:24N 43°17' E 005°18'0 0.0
2015-Jul-19 13:32N 43°17' E 005°18'0 0.0
2015-Jul-19 12:34N 43°17' E 005°18'0 0.0
2015-Jul-19 11:33N 43°17' E 005°18'0 0.0
2015-Jul-19 10:33N 43°17' E 005°18'0 0.1
2015-Jul-19 09:33N 43°17' E 005°18'0 0.0
2015-Jul-19 08:19N 43°17' E 005°18'0 0.0
2015-Jul-19 07:33N 43°17' E 005°18'0 0.0
2015-Jul-19 06:32N 43°17' E 005°18'0 0.0
2015-Jul-19 05:24N 43°17' E 005°18'0 0.0
2015-Jul-19 04:33N 43°17' E 005°18'0 0.0
2015-Jul-19 00:32N 43°17' E 005°18'0 0.0
2015-Jul-18 23:31N 43°17' E 005°18'0 0.0
2015-Jul-18 22:25N 43°17' E 005°18'0 0.0
2015-Jul-18 21:03N 43°17' E 005°18'0 0.0
2015-Jul-18 20:23N 43°17' E 005°18'0 0.1
2015-Jul-18 19:33N 43°17' E 005°18'4 2.6
2015-Jul-18 18:08N 43°21' E 005°19'0 0.2
2015-Jul-18 17:28N 43°21' E 005°19'  
Track history (hours):
 
Tides and Currents Weather Stations Pressure Air Temp Water Temp Dewpoint Dewpoint Depression Visibility Wind Speed Wind Dir Waves Ship Positions

S-y Atmosphere

Last reported at 2015-Jul-28 16:33 UTC. Time now 2015-Jul-29 09:30 UTC.
Position N 44°17' E 009°12'.

Length 53 m; draft 4 m.

Type: Sailing vessel. MMSI: 319726000.

Date/timePositionNaut miles runAvg speedWind from/ knotsBaromVisibWave heightAir tempDewpointWater temp
2015-Jul-28 16:33N 44°17' E 009°12'  
2015-Jul-23 09:13N 43°36' E 007°14'710.7
2015-Jul-23 08:33N 43°31' E 007°07'12 0.6
2015-Jul-22 11:29N 43°24' E 006°53'1010.7
2015-Jul-22 10:33N 43°18' E 006°42'3 2.3
2015-Jul-22 09:25N 43°17' E 006°39'0 0.0
2015-Jul-22 08:25N 43°16' E 006°39'0 0.0
2015-Jul-22 07:29N 43°16' E 006°39'0 0.0
2015-Jul-22 06:31N 43°16' E 006°39'0 0.0
2015-Jul-22 05:28N 43°17' E 006°39'0 0.0
2015-Jul-22 02:12N 43°17' E 006°39'0 0.0
2015-Jul-22 00:32N 43°16' E 006°39'0 0.0
2015-Jul-21 22:26N 43°16' E 006°39'0 0.0
2015-Jul-21 21:14N 43°16' E 006°39'0 0.0
2015-Jul-21 20:33N 43°16' E 006°39'0 0.2
2015-Jul-21 19:28N 43°16' E 006°39'0 0.0
2015-Jul-21 18:20N 43°16' E 006°39'0 0.2
2015-Jul-21 16:29N 43°17' E 006°40'59 2.4
2015-Jul-20 16:03N 43°14' E 005°19'510.2
2015-Jul-20 15:33N 43°19' E 005°19'1 1.2
2015-Jul-20 14:31N 43°21' E 005°19'0 0.0
2015-Jul-20 13:32N 43°21' E 005°19'0 0.1
2015-Jul-20 12:33N 43°21' E 005°19'0 0.0
2015-Jul-20 11:33N 43°21' E 005°19'0 0.0
2015-Jul-20 10:33N 43°21' E 005°19'0 0.0
2015-Jul-20 09:33N 43°21' E 005°19'0 0.0
2015-Jul-20 08:32N 43°21' E 005°19'0 0.0
2015-Jul-20 07:29N 43°21' E 005°19'0 0.0
2015-Jul-20 06:31N 43°21' E 005°19'4 1.0
2015-Jul-20 03:03N 43°17' E 005°18'0 0.0
2015-Jul-20 02:27N 43°17' E 005°18'0 0.0
2015-Jul-20 01:11N 43°17' E 005°18'0 0.0
2015-Jul-20 00:33N 43°17' E 005°18'0 0.0
2015-Jul-19 23:33N 43°17' E 005°18'0 0.0
2015-Jul-19 22:33N 43°17' E 005°18'0 0.0
2015-Jul-19 21:33N 43°17' E 005°18'0 0.0
2015-Jul-19 20:33N 43°17' E 005°18'0 0.0
2015-Jul-19 19:29N 43°17' E 005°18'0 0.0
2015-Jul-19 18:29N 43°17' E 005°18'0 0.0
2015-Jul-19 17:33N 43°17' E 005°18'0 0.0
2015-Jul-19 16:33N 43°17' E 005°18'0 0.0
2015-Jul-19 15:32N 43°17' E 005°18'0 0.0
2015-Jul-19 14:24N 43°17' E 005°18'0 0.0
2015-Jul-19 13:32N 43°17' E 005°18'0 0.0
2015-Jul-19 12:34N 43°17' E 005°18'0 0.0
2015-Jul-19 11:33N 43°17' E 005°18'0 0.0
2015-Jul-19 10:33N 43°17' E 005°18'0 0.1
2015-Jul-19 09:33N 43°17' E 005°18'0 0.0
2015-Jul-19 08:19N 43°17' E 005°18'0 0.0
2015-Jul-19 07:33N 43°17' E 005°18'0 0.0
2015-Jul-19 06:32N 43°17' E 005°18'0 0.0
2015-Jul-19 05:24N 43°17' E 005°18'0 0.0
2015-Jul-19 04:33N 43°17' E 005°18'0 0.0
2015-Jul-19 00:32N 43°17' E 005°18'0 0.0
2015-Jul-18 23:31N 43°17' E 005°18'0 0.0
2015-Jul-18 22:25N 43°17' E 005°18'0 0.0
2015-Jul-18 21:03N 43°17' E 005°18'0 0.0
2015-Jul-18 20:23N 43°17' E 005°18'0 0.1
2015-Jul-18 19:33N 43°17' E 005°18'4 2.6
2015-Jul-18 18:08N 43°21' E 005°19'0 0.2
2015-Jul-18 17:28N 43°21' E 005°19'  

Dump ship's entire track history